sensor_id;sensor_type;location;lat;lon;timestamp;temperature;humidity
31675;DHT22;18276;45.520;11.018;2022-08-30T00:02:10;24.30;80.60
31675;DHT22;18276;45.520;11.018;2022-08-30T00:04:37;24.30;80.70
31675;DHT22;18276;45.520;11.018;2022-08-30T00:07:04;24.20;80.70
31675;DHT22;18276;45.520;11.018;2022-08-30T00:09:32;24.30;80.80
31675;DHT22;18276;45.520;11.018;2022-08-30T00:11:59;24.30;80.90
31675;DHT22;18276;45.520;11.018;2022-08-30T00:14:26;24.30;80.90
31675;DHT22;18276;45.520;11.018;2022-08-30T00:16:54;24.30;80.90
31675;DHT22;18276;45.520;11.018;2022-08-30T00:19:21;24.20;80.80
31675;DHT22;18276;45.520;11.018;2022-08-30T00:21:48;24.20;80.80
31675;DHT22;18276;45.520;11.018;2022-08-30T00:24:15;24.20;80.80
31675;DHT22;18276;45.520;11.018;2022-08-30T00:26:42;24.20;80.80
31675;DHT22;18276;45.520;11.018;2022-08-30T00:29:09;24.30;80.90
31675;DHT22;18276;45.520;11.018;2022-08-30T00:31:36;24.30;81.00
31675;DHT22;18276;45.520;11.018;2022-08-30T00:34:03;24.30;80.90
31675;DHT22;18276;45.520;11.018;2022-08-30T00:36:30;24.30;80.80
31675;DHT22;18276;45.520;11.018;2022-08-30T00:38:57;24.30;80.70
31675;DHT22;18276;45.520;11.018;2022-08-30T00:41:24;24.30;80.70
31675;DHT22;18276;45.520;11.018;2022-08-30T00:43:51;24.30;80.90
31675;DHT22;18276;45.520;11.018;2022-08-30T00:46:18;24.30;81.20
31675;DHT22;18276;45.520;11.018;2022-08-30T00:48:46;24.20;81.20
31675;DHT22;18276;45.520;11.018;2022-08-30T00:51:15;24.20;81.40
31675;DHT22;18276;45.520;11.018;2022-08-30T00:53:48;24.20;81.40
31675;DHT22;18276;45.520;11.018;2022-08-30T00:56:16;24.20;81.50
31675;DHT22;18276;45.520;11.018;2022-08-30T00:58:47;24.20;81.40
31675;DHT22;18276;45.520;11.018;2022-08-30T01:01:15;24.20;81.40
31675;DHT22;18276;45.520;11.018;2022-08-30T01:03:43;24.20;81.70
31675;DHT22;18276;45.520;11.018;2022-08-30T01:06:12;24.20;81.50
31675;DHT22;18276;45.520;11.018;2022-08-30T01:08:44;24.20;81.60
31675;DHT22;18276;45.520;11.018;2022-08-30T01:11:14;24.20;81.70
31675;DHT22;18276;45.520;11.018;2022-08-30T01:13:42;24.20;81.70
31675;DHT22;18276;45.520;11.018;2022-08-30T01:16:13;24.10;81.70
31675;DHT22;18276;45.520;11.018;2022-08-30T01:18:41;24.20;81.70
31675;DHT22;18276;45.520;11.018;2022-08-30T01:23:48;24.20;81.50
31675;DHT22;18276;45.520;11.018;2022-08-30T01:26:16;24.20;81.40
31675;DHT22;18276;45.520;11.018;2022-08-30T01:28:51;24.20;81.40
31675;DHT22;18276;45.520;11.018;2022-08-30T01:31:19;24.20;81.30
31675;DHT22;18276;45.520;11.018;2022-08-30T01:33:46;24.30;81.20
31675;DHT22;18276;45.520;11.018;2022-08-30T01:36:13;24.30;81.10
31675;DHT22;18276;45.520;11.018;2022-08-30T01:38:53;24.30;81.00
31675;DHT22;18276;45.520;11.018;2022-08-30T01:41:27;24.30;81.00
31675;DHT22;18276;45.520;11.018;2022-08-30T01:43:57;24.30;81.20
31675;DHT22;18276;45.520;11.018;2022-08-30T01:46:44;24.30;81.40
31675;DHT22;18276;45.520;11.018;2022-08-30T01:49:15;24.30;81.60
31675;DHT22;18276;45.520;11.018;2022-08-30T01:51:44;24.30;81.70
31675;DHT22;18276;45.520;11.018;2022-08-30T01:54:11;24.30;81.80
31675;DHT22;18276;45.520;11.018;2022-08-30T01:56:38;24.30;81.90
31675;DHT22;18276;45.520;11.018;2022-08-30T01:59:06;24.30;82.00
31675;DHT22;18276;45.520;11.018;2022-08-30T02:01:34;24.30;82.20
31675;DHT22;18276;45.520;11.018;2022-08-30T02:04:03;24.30;82.40
31675;DHT22;18276;45.520;11.018;2022-08-30T02:06:31;24.40;82.70
31675;DHT22;18276;45.520;11.018;2022-08-30T02:08:58;24.30;83.00
31675;DHT22;18276;45.520;11.018;2022-08-30T02:11:26;24.30;83.50
31675;DHT22;18276;45.520;11.018;2022-08-30T02:13:53;24.30;83.80
31675;DHT22;18276;45.520;11.018;2022-08-30T02:16:22;24.30;84.30
31675;DHT22;18276;45.520;11.018;2022-08-30T02:18:51;24.30;84.90
31675;DHT22;18276;45.520;11.018;2022-08-30T02:21:19;24.20;85.50
31675;DHT22;18276;45.520;11.018;2022-08-30T02:23:46;24.20;86.10
31675;DHT22;18276;45.520;11.018;2022-08-30T02:26:14;24.10;86.80
31675;DHT22;18276;45.520;11.018;2022-08-30T02:28:42;24.20;87.60
31675;DHT22;18276;45.520;11.018;2022-08-30T02:31:17;24.10;88.20
31675;DHT22;18276;45.520;11.018;2022-08-30T02:33:51;24.10;89.00
31675;DHT22;18276;45.520;11.018;2022-08-30T02:36:19;24.00;89.60
31675;DHT22;18276;45.520;11.018;2022-08-30T02:38:47;24.00;90.50
31675;DHT22;18276;45.520;11.018;2022-08-30T02:41:15;24.00;90.60
31675;DHT22;18276;45.520;11.018;2022-08-30T02:43:42;23.90;91.00
31675;DHT22;18276;45.520;11.018;2022-08-30T02:46:10;23.90;91.50
31675;DHT22;18276;45.520;11.018;2022-08-30T02:48:37;23.80;92.10
31675;DHT22;18276;45.520;11.018;2022-08-30T02:51:07;23.80;92.70
31675;DHT22;18276;45.520;11.018;2022-08-30T02:53:38;23.80;93.10
31675;DHT22;18276;45.520;11.018;2022-08-30T02:56:05;23.80;93.50
31675;DHT22;18276;45.520;11.018;2022-08-30T02:58:32;23.90;94.00
31675;DHT22;18276;45.520;11.018;2022-08-30T03:00:59;23.90;94.40
31675;DHT22;18276;45.520;11.018;2022-08-30T03:03:27;23.90;94.70
31675;DHT22;18276;45.520;11.018;2022-08-30T03:05:54;23.90;94.90
31675;DHT22;18276;45.520;11.018;2022-08-30T03:08:21;23.90;95.10
31675;DHT22;18276;45.520;11.018;2022-08-30T03:10:49;23.90;95.60
31675;DHT22;18276;45.520;11.018;2022-08-30T03:13:16;23.90;95.70
31675;DHT22;18276;45.520;11.018;2022-08-30T03:15:43;23.90;95.70
31675;DHT22;18276;45.520;11.018;2022-08-30T03:18:10;24.00;95.50
31675;DHT22;18276;45.520;11.018;2022-08-30T03:20:37;24.10;95.90
31675;DHT22;18276;45.520;11.018;2022-08-30T03:23:06;24.10;97.00
31675;DHT22;18276;45.520;11.018;2022-08-30T03:25:33;23.90;98.10
31675;DHT22;18276;45.520;11.018;2022-08-30T03:28:00;23.70;98.50
31675;DHT22;18276;45.520;11.018;2022-08-30T03:30:27;23.60;99.80
31675;DHT22;18276;45.520;11.018;2022-08-30T03:32:54;23.50;99.90
31675;DHT22;18276;45.520;11.018;2022-08-30T03:35:21;23.40;99.90
31675;DHT22;18276;45.520;11.018;2022-08-30T03:37:49;23.40;99.90
31675;DHT22;18276;45.520;11.018;2022-08-30T03:40:22;23.40;99.90
31675;DHT22;18276;45.520;11.018;2022-08-30T03:42:49;23.40;99.90
31675;DHT22;18276;45.520;11.018;2022-08-30T03:45:17;23.40;99.90
31675;DHT22;18276;45.520;11.018;2022-08-30T03:47:44;23.40;99.90
31675;DHT22;18276;45.520;11.018;2022-08-30T03:50:12;23.30;99.90
31675;DHT22;18276;45.520;11.018;2022-08-30T03:52:40;23.40;99.90
31675;DHT22;18276;45.520;11.018;2022-08-30T03:55:07;23.30;99.90
31675;DHT22;18276;45.520;11.018;2022-08-30T03:57:34;23.30;99.90
31675;DHT22;18276;45.520;11.018;2022-08-30T04:00:03;23.30;99.90
31675;DHT22;18276;45.520;11.018;2022-08-30T04:02:37;23.30;99.90
31675;DHT22;18276;45.520;11.018;2022-08-30T04:05:04;23.30;99.90
31675;DHT22;18276;45.520;11.018;2022-08-30T04:07:32;23.30;99.90
31675;DHT22;18276;45.520;11.018;2022-08-30T04:09:59;23.30;99.90
31675;DHT22;18276;45.520;11.018;2022-08-30T04:12:26;23.20;99.90
31675;DHT22;18276;45.520;11.018;2022-08-30T04:14:53;23.20;99.90
31675;DHT22;18276;45.520;11.018;2022-08-30T04:17:20;23.10;99.90
31675;DHT22;18276;45.520;11.018;2022-08-30T04:19:47;22.90;99.90
31675;DHT22;18276;45.520;11.018;2022-08-30T04:22:14;22.90;99.90
31675;DHT22;18276;45.520;11.018;2022-08-30T04:24:41;22.80;99.90
31675;DHT22;18276;45.520;11.018;2022-08-30T04:27:09;22.80;99.90
31675;DHT22;18276;45.520;11.018;2022-08-30T04:29:36;22.70;99.90
31675;DHT22;18276;45.520;11.018;2022-08-30T04:32:03;22.70;99.90
31675;DHT22;18276;45.520;11.018;2022-08-30T04:34:30;22.60;99.90
31675;DHT22;18276;45.520;11.018;2022-08-30T04:36:57;22.60;99.90
31675;DHT22;18276;45.520;11.018;2022-08-30T04:39:24;22.60;99.90
31675;DHT22;18276;45.520;11.018;2022-08-30T04:41:51;22.60;99.90
31675;DHT22;18276;45.520;11.018;2022-08-30T04:44:18;22.50;99.90
31675;DHT22;18276;45.520;11.018;2022-08-30T04:46:46;22.50;99.90
31675;DHT22;18276;45.520;11.018;2022-08-30T04:49:13;22.50;99.90
31675;DHT22;18276;45.520;11.018;2022-08-30T04:51:40;22.50;99.90
31675;DHT22;18276;45.520;11.018;2022-08-30T04:54:07;22.50;99.90
31675;DHT22;18276;45.520;11.018;2022-08-30T04:56:34;22.40;99.90
31675;DHT22;18276;45.520;11.018;2022-08-30T04:59:02;22.50;99.90
31675;DHT22;18276;45.520;11.018;2022-08-30T05:01:30;22.40;99.90
31675;DHT22;18276;45.520;11.018;2022-08-30T05:04:10;22.40;99.90
31675;DHT22;18276;45.520;11.018;2022-08-30T05:06:37;22.40;99.90
31675;DHT22;18276;45.520;11.018;2022-08-30T05:09:04;22.40;99.90
31675;DHT22;18276;45.520;11.018;2022-08-30T05:11:31;22.40;99.90
31675;DHT22;18276;45.520;11.018;2022-08-30T05:13:58;22.40;99.90
31675;DHT22;18276;45.520;11.018;2022-08-30T05:16:25;22.40;99.90
31675;DHT22;18276;45.520;11.018;2022-08-30T05:18:53;22.30;99.90
31675;DHT22;18276;45.520;11.018;2022-08-30T05:21:25;22.30;99.90
31675;DHT22;18276;45.520;11.018;2022-08-30T05:23:54;22.30;99.90
31675;DHT22;18276;45.520;11.018;2022-08-30T05:26:24;22.30;99.90
31675;DHT22;18276;45.520;11.018;2022-08-30T05:28:52;22.20;99.90
31675;DHT22;18276;45.520;11.018;2022-08-30T05:31:23;22.20;99.90
31675;DHT22;18276;45.520;11.018;2022-08-30T05:33:51;22.10;99.90
31675;DHT22;18276;45.520;11.018;2022-08-30T05:36:20;22.10;99.90
31675;DHT22;18276;45.520;11.018;2022-08-30T05:38:49;22.00;99.90
31675;DHT22;18276;45.520;11.018;2022-08-30T05:41:18;22.00;99.90
31675;DHT22;18276;45.520;11.018;2022-08-30T05:43:46;21.90;99.90
31675;DHT22;18276;45.520;11.018;2022-08-30T05:46:14;21.90;99.90
31675;DHT22;18276;45.520;11.018;2022-08-30T05:48:46;21.90;99.90
31675;DHT22;18276;45.520;11.018;2022-08-30T05:51:19;21.90;99.90
31675;DHT22;18276;45.520;11.018;2022-08-30T05:53:48;21.90;99.90
31675;DHT22;18276;45.520;11.018;2022-08-30T05:56:18;21.80;99.90
31675;DHT22;18276;45.520;11.018;2022-08-30T05:58:46;21.80;99.90
31675;DHT22;18276;45.520;11.018;2022-08-30T06:01:25;21.80;99.90
31675;DHT22;18276;45.520;11.018;2022-08-30T06:03:54;21.90;99.90
31675;DHT22;18276;45.520;11.018;2022-08-30T06:06:30;21.90;99.90
31675;DHT22;18276;45.520;11.018;2022-08-30T06:08:57;21.90;99.90
31675;DHT22;18276;45.520;11.018;2022-08-30T06:11:25;21.90;99.90
31675;DHT22;18276;45.520;11.018;2022-08-30T06:13:53;22.00;99.90
31675;DHT22;18276;45.520;11.018;2022-08-30T06:16:24;22.10;99.90
31675;DHT22;18276;45.520;11.018;2022-08-30T06:18:53;22.10;99.90
31675;DHT22;18276;45.520;11.018;2022-08-30T06:21:26;22.40;99.90
31675;DHT22;18276;45.520;11.018;2022-08-30T06:23:55;22.60;99.90
31675;DHT22;18276;45.520;11.018;2022-08-30T06:26:23;22.90;99.90
31675;DHT22;18276;45.520;11.018;2022-08-30T06:28:50;23.40;99.10
31675;DHT22;18276;45.520;11.018;2022-08-30T06:31:19;24.20;96.70
31675;DHT22;18276;45.520;11.018;2022-08-30T06:33:46;25.20;93.30
31675;DHT22;18276;45.520;11.018;2022-08-30T06:36:16;26.00;89.20
31675;DHT22;18276;45.520;11.018;2022-08-30T06:38:45;26.30;84.00
31675;DHT22;18276;45.520;11.018;2022-08-30T06:41:16;26.40;81.50
31675;DHT22;18276;45.520;11.018;2022-08-30T06:43:45;26.20;80.40
31675;DHT22;18276;45.520;11.018;2022-08-30T06:46:27;26.00;81.00
31675;DHT22;18276;45.520;11.018;2022-08-30T06:48:55;26.60;79.50
31675;DHT22;18276;45.520;11.018;2022-08-30T06:51:31;27.50;76.90
31675;DHT22;18276;45.520;11.018;2022-08-30T06:54:01;28.60;72.90
31675;DHT22;18276;45.520;11.018;2022-08-30T06:56:29;29.50;70.50
31675;DHT22;18276;45.520;11.018;2022-08-30T06:58:57;30.20;66.50
31675;DHT22;18276;45.520;11.018;2022-08-30T07:01:25;30.90;64.40
31675;DHT22;18276;45.520;11.018;2022-08-30T07:03:53;31.40;61.90
31675;DHT22;18276;45.520;11.018;2022-08-30T07:06:22;31.40;60.20
31675;DHT22;18276;45.520;11.018;2022-08-30T07:08:50;31.50;59.70
31675;DHT22;18276;45.520;11.018;2022-08-30T07:13:54;32.70;57.40
31675;DHT22;18276;45.520;11.018;2022-08-30T07:16:21;33.30;56.10
31675;DHT22;18276;45.520;11.018;2022-08-30T07:18:48;33.80;54.70
31675;DHT22;18276;45.520;11.018;2022-08-30T07:21:33;34.20;53.40
31675;DHT22;18276;45.520;11.018;2022-08-30T07:24:01;34.60;52.20
31675;DHT22;18276;45.520;11.018;2022-08-30T07:26:37;34.80;51.40
31675;DHT22;18276;45.520;11.018;2022-08-30T07:29:05;35.10;50.20
31675;DHT22;18276;45.520;11.018;2022-08-30T07:31:32;35.20;49.80
31675;DHT22;18276;45.520;11.018;2022-08-30T07:34:03;35.30;49.60
31675;DHT22;18276;45.520;11.018;2022-08-30T07:36:31;35.50;49.00
31675;DHT22;18276;45.520;11.018;2022-08-30T07:38:59;35.60;48.80
31675;DHT22;18276;45.520;11.018;2022-08-30T07:41:29;35.60;48.90
31675;DHT22;18276;45.520;11.018;2022-08-30T07:43:57;35.30;49.00
31675;DHT22;18276;45.520;11.018;2022-08-30T07:46:24;35.30;49.40
31675;DHT22;18276;45.520;11.018;2022-08-30T07:48:52;35.90;48.70
31675;DHT22;18276;45.520;11.018;2022-08-30T07:51:23;36.60;47.60
31675;DHT22;18276;45.520;11.018;2022-08-30T07:53:51;36.90;46.70
31675;DHT22;18276;45.520;11.018;2022-08-30T07:56:19;37.20;45.70
31675;DHT22;18276;45.520;11.018;2022-08-30T07:58:46;37.50;45.30
31675;DHT22;18276;45.520;11.018;2022-08-30T08:01:15;38.00;44.60
31675;DHT22;18276;45.520;11.018;2022-08-30T08:03:43;38.50;43.10
31675;DHT22;18276;45.520;11.018;2022-08-30T08:06:13;38.20;42.40
31675;DHT22;18276;45.520;11.018;2022-08-30T08:08:41;38.00;43.10
31675;DHT22;18276;45.520;11.018;2022-08-30T08:11:12;38.10;42.80
31675;DHT22;18276;45.520;11.018;2022-08-30T08:13:43;37.50;43.50
31675;DHT22;18276;45.520;11.018;2022-08-30T08:16:28;37.00;45.00
31675;DHT22;18276;45.520;11.018;2022-08-30T08:18:55;36.20;46.10
31675;DHT22;18276;45.520;11.018;2022-08-30T08:21:24;35.30;46.70
31675;DHT22;18276;45.520;11.018;2022-08-30T08:23:51;34.50;48.00
31675;DHT22;18276;45.520;11.018;2022-08-30T08:26:19;33.90;49.40
31675;DHT22;18276;45.520;11.018;2022-08-30T08:28:47;33.50;50.70
31675;DHT22;18276;45.520;11.018;2022-08-30T08:31:25;34.20;50.30
31675;DHT22;18276;45.520;11.018;2022-08-30T08:34:00;34.80;48.60
31675;DHT22;18276;45.520;11.018;2022-08-30T08:36:29;34.60;48.50
31675;DHT22;18276;45.520;11.018;2022-08-30T08:38:57;34.10;49.00
31675;DHT22;18276;45.520;11.018;2022-08-30T08:41:35;33.50;49.80
31675;DHT22;18276;45.520;11.018;2022-08-30T08:44:32;33.20;50.80
31675;DHT22;18276;45.520;11.018;2022-08-30T08:49:37;34.30;49.40
31675;DHT22;18276;45.520;11.018;2022-08-30T08:52:07;34.30;48.70
31675;DHT22;18276;45.520;11.018;2022-08-30T08:55:18;34.30;49.40
31675;DHT22;18276;45.520;11.018;2022-08-30T08:57:46;34.80;48.70
31675;DHT22;18276;45.520;11.018;2022-08-30T09:00:14;35.40;48.00
31675;DHT22;18276;45.520;11.018;2022-08-30T09:02:48;35.80;45.80
31675;DHT22;18276;45.520;11.018;2022-08-30T09:05:22;35.50;45.00
31675;DHT22;18276;45.520;11.018;2022-08-30T09:08:06;35.10;45.70
31675;DHT22;18276;45.520;11.018;2022-08-30T09:10:37;35.20;45.80
31675;DHT22;18276;45.520;11.018;2022-08-30T09:13:17;35.90;44.80
31675;DHT22;18276;45.520;11.018;2022-08-30T09:15:48;35.60;44.30
31675;DHT22;18276;45.520;11.018;2022-08-30T09:18:40;35.10;44.70
31675;DHT22;18276;45.520;11.018;2022-08-30T09:21:13;34.70;45.10
31675;DHT22;18276;45.520;11.018;2022-08-30T09:23:49;34.70;45.30
31675;DHT22;18276;45.520;11.018;2022-08-30T09:26:31;34.90;45.20
31675;DHT22;18276;45.520;11.018;2022-08-30T09:28:59;35.90;43.30
31675;DHT22;18276;45.520;11.018;2022-08-30T09:31:30;36.60;41.50
31675;DHT22;18276;45.520;11.018;2022-08-30T09:44:38;36.50;41.10
31675;DHT22;18276;45.520;11.018;2022-08-30T09:47:21;35.80;41.50
31675;DHT22;18276;45.520;11.018;2022-08-30T09:58:12;35.40;43.00
31675;DHT22;18276;45.520;11.018;2022-08-30T10:00:55;36.40;41.50
31675;DHT22;18276;45.520;11.018;2022-08-30T10:03:35;37.00;40.10
31675;DHT22;18276;45.520;11.018;2022-08-30T10:14:28;38.90;37.40
31675;DHT22;18276;45.520;11.018;2022-08-30T10:22:33;37.80;38.00
31675;DHT22;18276;45.520;11.018;2022-08-30T10:25:20;36.90;39.20
31675;DHT22;18276;45.520;11.018;2022-08-30T10:27:59;36.40;40.30
31675;DHT22;18276;45.520;11.018;2022-08-30T10:30:32;36.60;40.60
31675;DHT22;18276;45.520;11.018;2022-08-30T10:33:14;37.00;40.60
31675;DHT22;18276;45.520;11.018;2022-08-30T10:35:48;37.40;39.60
31675;DHT22;18276;45.520;11.018;2022-08-30T10:38:26;37.70;39.90
31675;DHT22;18276;45.520;11.018;2022-08-30T10:41:09;37.50;39.70
31675;DHT22;18276;45.520;11.018;2022-08-30T10:43:44;37.30;39.40
31675;DHT22;18276;45.520;11.018;2022-08-30T10:49:31;38.10;38.30
31675;DHT22;18276;45.520;11.018;2022-08-30T10:54:56;39.90;35.60
31675;DHT22;18276;45.520;11.018;2022-08-30T10:57:26;40.10;35.40
31675;DHT22;18276;45.520;11.018;2022-08-30T11:00:00;40.60;35.10
31675;DHT22;18276;45.520;11.018;2022-08-30T11:10:48;40.20;34.90
31675;DHT22;18276;45.520;11.018;2022-08-30T11:13:28;39.80;34.90
31675;DHT22;18276;45.520;11.018;2022-08-30T11:18:48;38.70;35.80
31675;DHT22;18276;45.520;11.018;2022-08-30T11:21:38;38.60;36.50
31675;DHT22;18276;45.520;11.018;2022-08-30T11:29:27;39.20;35.80
31675;DHT22;18276;45.520;11.018;2022-08-30T11:42:54;40.60;34.70
31675;DHT22;18276;45.520;11.018;2022-08-30T11:50:21;40.20;35.00
31675;DHT22;18276;45.520;11.018;2022-08-30T11:55:44;39.30;35.90
31675;DHT22;18276;45.520;11.018;2022-08-30T12:06:47;36.50;40.40
31675;DHT22;18276;45.520;11.018;2022-08-30T12:12:02;36.60;40.10
31675;DHT22;18276;45.520;11.018;2022-08-30T12:14:50;36.60;40.10
31675;DHT22;18276;45.520;11.018;2022-08-30T12:17:23;36.80;40.30
31675;DHT22;18276;45.520;11.018;2022-08-30T12:20:37;36.90;40.00
31675;DHT22;18276;45.520;11.018;2022-08-30T12:25:49;38.10;38.70
31675;DHT22;18276;45.520;11.018;2022-08-30T12:28:37;38.30;38.70
31675;DHT22;18276;45.520;11.018;2022-08-30T12:31:20;38.60;38.30
31675;DHT22;18276;45.520;11.018;2022-08-30T12:33:53;38.90;38.30
31675;DHT22;18276;45.520;11.018;2022-08-30T12:36:34;39.50;37.50
31675;DHT22;18276;45.520;11.018;2022-08-30T12:39:28;40.50;36.20
31675;DHT22;18276;45.520;11.018;2022-08-30T12:42:32;40.80;34.80
31675;DHT22;18276;45.520;11.018;2022-08-30T12:44:59;40.30;34.90
31675;DHT22;18276;45.520;11.018;2022-08-30T12:49:57;39.00;36.70
31675;DHT22;18276;45.520;11.018;2022-08-30T12:52:38;39.10;37.20
31675;DHT22;18276;45.520;11.018;2022-08-30T12:55:16;39.60;36.80
31675;DHT22;18276;45.520;11.018;2022-08-30T12:57:59;39.70;36.50
31675;DHT22;18276;45.520;11.018;2022-08-30T13:00:45;38.90;37.00
31675;DHT22;18276;45.520;11.018;2022-08-30T13:03:28;38.30;38.30
31675;DHT22;18276;45.520;11.018;2022-08-30T13:05:58;37.90;38.80
31675;DHT22;18276;45.520;11.018;2022-08-30T13:11:22;37.60;39.90
31675;DHT22;18276;45.520;11.018;2022-08-30T13:19:41;37.30;40.30
31675;DHT22;18276;45.520;11.018;2022-08-30T13:22:27;37.70;39.90
31675;DHT22;18276;45.520;11.018;2022-08-30T13:24:56;38.20;38.80
31675;DHT22;18276;45.520;11.018;2022-08-30T13:27:24;38.60;38.30
31675;DHT22;18276;45.520;11.018;2022-08-30T13:29:51;38.80;38.10
31675;DHT22;18276;45.520;11.018;2022-08-30T13:32:19;39.20;37.90
31675;DHT22;18276;45.520;11.018;2022-08-30T13:34:46;39.50;37.20
31675;DHT22;18276;45.520;11.018;2022-08-30T13:37:22;39.50;36.90
31675;DHT22;18276;45.520;11.018;2022-08-30T13:40:11;39.90;36.70
31675;DHT22;18276;45.520;11.018;2022-08-30T13:42:39;40.20;36.00
31675;DHT22;18276;45.520;11.018;2022-08-30T13:45:09;40.10;36.10
31675;DHT22;18276;45.520;11.018;2022-08-30T13:47:57;39.60;36.30
31675;DHT22;18276;45.520;11.018;2022-08-30T13:50:25;38.90;37.50
31675;DHT22;18276;45.520;11.018;2022-08-30T13:52:53;38.30;38.10
31675;DHT22;18276;45.520;11.018;2022-08-30T13:55:20;37.60;38.70
31675;DHT22;18276;45.520;11.018;2022-08-30T13:57:47;37.20;39.80
31675;DHT22;18276;45.520;11.018;2022-08-30T14:00:24;37.10;40.00
31675;DHT22;18276;45.520;11.018;2022-08-30T14:02:52;37.20;40.20
31675;DHT22;18276;45.520;11.018;2022-08-30T14:05:26;37.20;39.70
31675;DHT22;18276;45.520;11.018;2022-08-30T14:08:18;36.90;40.00
31675;DHT22;18276;45.520;11.018;2022-08-30T14:11:06;36.60;40.90
31675;DHT22;18276;45.520;11.018;2022-08-30T14:13:33;36.40;42.10
31675;DHT22;18276;45.520;11.018;2022-08-30T14:16:04;36.20;42.20
31675;DHT22;18276;45.520;11.018;2022-08-30T14:18:51;36.20;41.90
31675;DHT22;18276;45.520;11.018;2022-08-30T14:21:19;36.10;42.00
31675;DHT22;18276;45.520;11.018;2022-08-30T14:23:51;36.20;42.30
31675;DHT22;18276;45.520;11.018;2022-08-30T14:26:29;36.40;42.40
31675;DHT22;18276;45.520;11.018;2022-08-30T14:29:00;36.50;42.30
31675;DHT22;18276;45.520;11.018;2022-08-30T14:31:27;36.40;42.00
31675;DHT22;18276;45.520;11.018;2022-08-30T14:34:02;36.50;42.30
31675;DHT22;18276;45.520;11.018;2022-08-30T14:36:31;36.50;42.30
31675;DHT22;18276;45.520;11.018;2022-08-30T14:38:59;36.50;42.10
31675;DHT22;18276;45.520;11.018;2022-08-30T14:41:26;36.50;41.90
31675;DHT22;18276;45.520;11.018;2022-08-30T14:43:53;36.40;41.60
31675;DHT22;18276;45.520;11.018;2022-08-30T14:46:20;36.10;41.80
31675;DHT22;18276;45.520;11.018;2022-08-30T14:48:52;36.10;42.00
31675;DHT22;18276;45.520;11.018;2022-08-30T14:51:21;36.00;42.20
31675;DHT22;18276;45.520;11.018;2022-08-30T14:53:53;35.80;42.70
31675;DHT22;18276;45.520;11.018;2022-08-30T14:56:21;35.70;42.90
31675;DHT22;18276;45.520;11.018;2022-08-30T14:58:52;35.50;43.30
31675;DHT22;18276;45.520;11.018;2022-08-30T15:01:20;35.20;43.80
31675;DHT22;18276;45.520;11.018;2022-08-30T15:03:48;34.80;44.50
31675;DHT22;18276;45.520;11.018;2022-08-30T15:06:17;34.50;45.30
31675;DHT22;18276;45.520;11.018;2022-08-30T15:08:46;34.50;45.70
31675;DHT22;18276;45.520;11.018;2022-08-30T15:11:17;34.60;45.70
31675;DHT22;18276;45.520;11.018;2022-08-30T15:13:45;34.50;45.90
31675;DHT22;18276;45.520;11.018;2022-08-30T15:16:16;34.30;46.30
31675;DHT22;18276;45.520;11.018;2022-08-30T15:18:43;34.20;46.80
31675;DHT22;18276;45.520;11.018;2022-08-30T15:21:10;33.90;46.90
31675;DHT22;18276;45.520;11.018;2022-08-30T15:23:38;33.80;47.50
31675;DHT22;18276;45.520;11.018;2022-08-30T15:26:06;33.70;48.00
31675;DHT22;18276;45.520;11.018;2022-08-30T15:28:35;33.70;48.20
31675;DHT22;18276;45.520;11.018;2022-08-30T15:31:02;33.70;48.50
31675;DHT22;18276;45.520;11.018;2022-08-30T15:33:36;33.60;48.60
31675;DHT22;18276;45.520;11.018;2022-08-30T15:36:04;33.40;49.30
31675;DHT22;18276;45.520;11.018;2022-08-30T15:38:31;33.30;49.50
31675;DHT22;18276;45.520;11.018;2022-08-30T15:41:02;33.20;49.70
31675;DHT22;18276;45.520;11.018;2022-08-30T15:43:30;33.20;49.70
31675;DHT22;18276;45.520;11.018;2022-08-30T15:46:18;33.00;49.60
31675;DHT22;18276;45.520;11.018;2022-08-30T15:48:46;32.50;50.30
31675;DHT22;18276;45.520;11.018;2022-08-30T15:51:14;32.20;51.10
31675;DHT22;18276;45.520;11.018;2022-08-30T15:53:43;32.00;51.90
31675;DHT22;18276;45.520;11.018;2022-08-30T15:56:11;31.80;52.00
31675;DHT22;18276;45.520;11.018;2022-08-30T15:58:39;31.60;52.10
31675;DHT22;18276;45.520;11.018;2022-08-30T16:01:07;31.50;52.40
31675;DHT22;18276;45.520;11.018;2022-08-30T16:03:35;31.30;53.10
31675;DHT22;18276;45.520;11.018;2022-08-30T16:06:12;31.20;53.40
31675;DHT22;18276;45.520;11.018;2022-08-30T16:08:40;31.00;53.50
31675;DHT22;18276;45.520;11.018;2022-08-30T16:11:08;30.70;54.00
31675;DHT22;18276;45.520;11.018;2022-08-30T16:13:36;30.60;54.40
31675;DHT22;18276;45.520;11.018;2022-08-30T16:16:05;30.50;55.00
31675;DHT22;18276;45.520;11.018;2022-08-30T16:18:34;30.50;55.60
31675;DHT22;18276;45.520;11.018;2022-08-30T16:21:13;30.50;56.00
31675;DHT22;18276;45.520;11.018;2022-08-30T16:23:42;30.60;56.30
31675;DHT22;18276;45.520;11.018;2022-08-30T16:26:11;30.60;56.40
31675;DHT22;18276;45.520;11.018;2022-08-30T16:28:44;30.60;56.20
31675;DHT22;18276;45.520;11.018;2022-08-30T16:31:11;30.60;56.40
31675;DHT22;18276;45.520;11.018;2022-08-30T16:33:39;30.60;56.60
31675;DHT22;18276;45.520;11.018;2022-08-30T16:36:10;30.50;56.90
31675;DHT22;18276;45.520;11.018;2022-08-30T16:38:39;30.60;57.20
31675;DHT22;18276;45.520;11.018;2022-08-30T16:41:09;30.60;57.50
31675;DHT22;18276;45.520;11.018;2022-08-30T16:43:38;30.50;57.50
31675;DHT22;18276;45.520;11.018;2022-08-30T16:46:08;30.40;57.80
31675;DHT22;18276;45.520;11.018;2022-08-30T16:48:37;30.30;58.00
31675;DHT22;18276;45.520;11.018;2022-08-30T16:51:08;30.10;58.30
31675;DHT22;18276;45.520;11.018;2022-08-30T16:53:36;30.00;58.70
31675;DHT22;18276;45.520;11.018;2022-08-30T16:56:10;29.90;59.60
31675;DHT22;18276;45.520;11.018;2022-08-30T16:58:37;29.90;60.50
31675;DHT22;18276;45.520;11.018;2022-08-30T17:01:05;29.70;61.00
31675;DHT22;18276;45.520;11.018;2022-08-30T17:03:32;29.60;61.60
31675;DHT22;18276;45.520;11.018;2022-08-30T17:06:00;29.50;62.00
31675;DHT22;18276;45.520;11.018;2022-08-30T17:08:29;29.50;62.50
31675;DHT22;18276;45.520;11.018;2022-08-30T17:10:57;29.30;62.70
31675;DHT22;18276;45.520;11.018;2022-08-30T17:13:24;29.20;63.20
31675;DHT22;18276;45.520;11.018;2022-08-30T17:15:51;29.10;63.50
31675;DHT22;18276;45.520;11.018;2022-08-30T17:18:18;29.00;64.50
31675;DHT22;18276;45.520;11.018;2022-08-30T17:20:46;28.80;65.20
31675;DHT22;18276;45.520;11.018;2022-08-30T17:23:13;28.60;65.70
31675;DHT22;18276;45.520;11.018;2022-08-30T17:25:40;28.50;66.20